sensor_id;sensor_type;location;lat;lon;timestamp;pressure;altitude;pressure_sealevel;temperature;humidity
17936;BME280;9093;52.062;4.508;2022-11-06T00:00:51;101622.34;;;11.49;78.79
17936;BME280;9093;52.062;4.508;2022-11-06T00:03:32;101618.81;;;11.49;78.99
17936;BME280;9093;52.062;4.508;2022-11-06T00:06:14;101616.13;;;11.49;78.74
17936;BME280;9093;52.062;4.508;2022-11-06T00:09:14;101603.69;;;11.48;78.75
17936;BME280;9093;52.062;4.508;2022-11-06T00:11:54;101586.72;;;11.49;79.05
17936;BME280;9093;52.062;4.508;2022-11-06T00:14:35;101585.84;;;11.48;78.85
17936;BME280;9093;52.062;4.508;2022-11-06T00:17:15;101580.56;;;11.47;78.71
17936;BME280;9093;52.062;4.508;2022-11-06T00:19:55;101580.56;;;11.47;78.80
17936;BME280;9093;52.062;4.508;2022-11-06T00:22:36;101575.22;;;11.47;78.78
17936;BME280;9093;52.062;4.508;2022-11-06T00:25:16;101576.97;;;11.48;79.00
17936;BME280;9093;52.062;4.508;2022-11-06T00:27:56;101583.16;;;11.48;78.79
17936;BME280;9093;52.062;4.508;2022-11-06T00:30:36;101580.44;;;11.50;78.87
17936;BME280;9093;52.062;4.508;2022-11-06T00:33:17;101583.88;;;11.52;78.72
17936;BME280;9093;52.062;4.508;2022-11-06T00:35:57;101584.75;;;11.52;78.84
17936;BME280;9093;52.062;4.508;2022-11-06T00:38:37;101587.44;;;11.52;78.63
17936;BME280;9093;52.062;4.508;2022-11-06T00:41:17;101587.50;;;11.51;78.74
17936;BME280;9093;52.062;4.508;2022-11-06T00:43:59;101580.44;;;11.50;78.93
17936;BME280;9093;52.062;4.508;2022-11-06T00:46:40;101578.69;;;11.49;78.81
17936;BME280;9093;52.062;4.508;2022-11-06T00:49:20;101588.53;;;11.48;78.74
17936;BME280;9093;52.062;4.508;2022-11-06T00:52:00;101584.03;;;11.49;78.74
17936;BME280;9093;52.062;4.508;2022-11-06T00:54:41;101576.97;;;11.48;78.96
17936;BME280;9093;52.062;4.508;2022-11-06T00:57:21;101580.56;;;11.47;78.67
17936;BME280;9093;52.062;4.508;2022-11-06T01:00:02;101566.38;;;11.45;78.87
17936;BME280;9093;52.062;4.508;2022-11-06T01:02:43;101594.16;;;11.42;78.89
17936;BME280;9093;52.062;4.508;2022-11-06T01:05:24;101587.13;;;11.40;78.94
17936;BME280;9093;52.062;4.508;2022-11-06T01:08:04;101585.53;;;11.36;79.03
17936;BME280;9093;52.062;4.508;2022-11-06T01:10:44;101582.94;;;11.34;79.25
17936;BME280;9093;52.062;4.508;2022-11-06T01:13:24;101584.78;;;11.32;79.08
17936;BME280;9093;52.062;4.508;2022-11-06T01:16:05;101582.13;;;11.32;79.36
17936;BME280;9093;52.062;4.508;2022-11-06T01:18:47;101576.00;;;11.30;79.30
17936;BME280;9093;52.062;4.508;2022-11-06T01:21:32;101572.56;;;11.26;79.29
17936;BME280;9093;52.062;4.508;2022-11-06T01:24:13;101570.81;;;11.25;79.55
17936;BME280;9093;52.062;4.508;2022-11-06T01:26:54;101553.94;;;11.25;79.31
17936;BME280;9093;52.062;4.508;2022-11-06T01:29:34;101556.69;;;11.23;79.57
17936;BME280;9093;52.062;4.508;2022-11-06T01:32:15;101559.41;;;11.22;79.58
17936;BME280;9093;52.062;4.508;2022-11-06T01:34:55;101560.28;;;11.22;79.60
17936;BME280;9093;52.062;4.508;2022-11-06T01:37:35;101570.13;;;11.22;79.59
17936;BME280;9093;52.062;4.508;2022-11-06T01:40:15;101563.91;;;11.21;79.65
17936;BME280;9093;52.062;4.508;2022-11-06T01:42:55;101557.63;;;11.22;79.70
17936;BME280;9093;52.062;4.508;2022-11-06T01:45:36;101556.81;;;11.20;79.86
17936;BME280;9093;52.062;4.508;2022-11-06T01:48:18;101555.06;;;11.19;79.75
17936;BME280;9093;52.062;4.508;2022-11-06T01:51:00;101553.38;;;11.18;80.00
17936;BME280;9093;52.062;4.508;2022-11-06T01:53:40;101561.38;;;11.18;79.87
17936;BME280;9093;52.062;4.508;2022-11-06T01:56:20;101549.72;;;11.19;79.89
17936;BME280;9093;52.062;4.508;2022-11-06T01:59:02;101551.63;;;11.17;79.80
17936;BME280;9093;52.062;4.508;2022-11-06T02:01:42;101550.81;;;11.15;79.79
17936;BME280;9093;52.062;4.508;2022-11-06T02:04:27;101559.75;;;11.14;80.09
17936;BME280;9093;52.062;4.508;2022-11-06T02:07:08;101546.47;;;11.13;79.95
17936;BME280;9093;52.062;4.508;2022-11-06T02:09:48;101541.19;;;11.11;80.30
17936;BME280;9093;52.062;4.508;2022-11-06T02:12:46;101536.84;;;11.09;80.05
17936;BME280;9093;52.062;4.508;2022-11-06T02:16:13;101543.06;;;11.09;80.13
17936;BME280;9093;52.062;4.508;2022-11-06T02:18:54;101544.88;;;11.09;80.29
17936;BME280;9093;52.062;4.508;2022-11-06T02:27:20;101529.72;;;11.09;80.09
17936;BME280;9093;52.062;4.508;2022-11-06T02:30:07;101526.16;;;11.09;80.34
17936;BME280;9093;52.062;4.508;2022-11-06T02:32:59;101525.28;;;11.08;80.21
17936;BME280;9093;52.062;4.508;2022-11-06T02:35:52;101519.94;;;11.08;80.43
17936;BME280;9093;52.062;4.508;2022-11-06T02:38:37;101530.56;;;11.10;80.41
17936;BME280;9093;52.062;4.508;2022-11-06T02:41:19;101509.25;;;11.08;80.50
17936;BME280;9093;52.062;4.508;2022-11-06T02:44:02;101511.94;;;11.08;80.55
17936;BME280;9093;52.062;4.508;2022-11-06T02:46:46;101524.34;;;11.09;80.57
17936;BME280;9093;52.062;4.508;2022-11-06T02:55:06;101495.91;;;11.08;80.48
17936;BME280;9093;52.062;4.508;2022-11-06T02:57:49;101509.25;;;11.08;80.59
17936;BME280;9093;52.062;4.508;2022-11-06T03:00:31;101516.34;;;11.09;80.75
17936;BME280;9093;52.062;4.508;2022-11-06T03:03:29;101516.34;;;11.09;80.77
17936;BME280;9093;52.062;4.508;2022-11-06T03:06:14;101509.25;;;11.08;80.62
17936;BME280;9093;52.062;4.508;2022-11-06T03:09:07;101509.25;;;11.08;80.45
17936;BME280;9093;52.062;4.508;2022-11-06T03:11:50;101499.50;;;11.07;80.78
17936;BME280;9093;52.062;4.508;2022-11-06T03:14:38;101496.75;;;11.09;80.69
17936;BME280;9093;52.062;4.508;2022-11-06T03:17:46;101484.28;;;11.09;80.87
17936;BME280;9093;52.062;4.508;2022-11-06T03:26:39;101484.97;;;11.13;80.87
17936;BME280;9093;52.062;4.508;2022-11-06T03:29:01;101488.53;;;11.13;80.85
17936;BME280;9093;52.062;4.508;2022-11-06T03:31:55;101492.00;;;11.15;80.90
17936;BME280;9093;52.062;4.508;2022-11-06T03:34:38;101480.38;;;11.16;80.84
17936;BME280;9093;52.062;4.508;2022-11-06T03:37:22;101468.81;;;11.16;80.76
17936;BME280;9093;52.062;4.508;2022-11-06T03:40:04;101467.03;;;11.16;80.84
17936;BME280;9093;52.062;4.508;2022-11-06T03:42:47;101471.44;;;11.17;81.02
17936;BME280;9093;52.062;4.508;2022-11-06T03:45:29;101461.63;;;11.18;81.10
17936;BME280;9093;52.062;4.508;2022-11-06T03:51:00;101460.75;;;11.17;80.95
17936;BME280;9093;52.062;4.508;2022-11-06T03:53:49;101458.84;;;11.19;80.97
17936;BME280;9093;52.062;4.508;2022-11-06T03:56:38;101445.41;;;11.21;81.21
17936;BME280;9093;52.062;4.508;2022-11-06T03:59:20;101439.19;;;11.20;81.07
17936;BME280;9093;52.062;4.508;2022-11-06T04:02:04;101447.16;;;11.22;80.77
17936;BME280;9093;52.062;4.508;2022-11-06T04:07:25;101438.13;;;11.24;80.93
17936;BME280;9093;52.062;4.508;2022-11-06T04:10:09;101431.00;;;11.25;81.02
17936;BME280;9093;52.062;4.508;2022-11-06T04:13:08;101423.75;;;11.27;81.12
17936;BME280;9093;52.062;4.508;2022-11-06T04:16:07;101419.25;;;11.27;81.10
17936;BME280;9093;52.062;4.508;2022-11-06T04:18:48;101415.66;;;11.28;80.98
17936;BME280;9093;52.062;4.508;2022-11-06T04:21:38;101430.75;;;11.29;81.21
17936;BME280;9093;52.062;4.508;2022-11-06T04:27:44;101412.06;;;11.29;81.07
17936;BME280;9093;52.062;4.508;2022-11-06T04:30:28;101409.38;;;11.29;81.17
17936;BME280;9093;52.062;4.508;2022-11-06T04:33:13;101411.13;;;11.31;81.01
17936;BME280;9093;52.062;4.508;2022-11-06T04:36:01;101420.00;;;11.31;81.09
17936;BME280;9093;52.062;4.508;2022-11-06T04:44:36;101410.19;;;11.32;80.99
17936;BME280;9093;52.062;4.508;2022-11-06T04:47:18;101399.50;;;11.32;81.11
17936;BME280;9093;52.062;4.508;2022-11-06T04:49:59;101397.75;;;11.31;81.10
17936;BME280;9093;52.062;4.508;2022-11-06T04:52:41;101399.50;;;11.32;81.15
17936;BME280;9093;52.062;4.508;2022-11-06T04:55:21;101398.69;;;11.29;81.23
17936;BME280;9093;52.062;4.508;2022-11-06T04:58:02;101397.81;;;11.29;81.27
17936;BME280;9093;52.062;4.508;2022-11-06T05:00:44;101408.63;;;11.26;81.47
17936;BME280;9093;52.062;4.508;2022-11-06T05:03:24;101398.16;;;11.21;81.40
17936;BME280;9093;52.062;4.508;2022-11-06T05:06:05;101392.03;;;11.19;81.38
17936;BME280;9093;52.062;4.508;2022-11-06T05:08:45;101386.84;;;11.16;81.55
17936;BME280;9093;52.062;4.508;2022-11-06T05:11:25;101389.50;;;11.16;81.68
17936;BME280;9093;52.062;4.508;2022-11-06T05:14:05;101381.56;;;11.15;81.71
17936;BME280;9093;52.062;4.508;2022-11-06T05:16:46;101380.69;;;11.14;81.53
17936;BME280;9093;52.062;4.508;2022-11-06T05:19:26;101368.25;;;11.13;81.69
17936;BME280;9093;52.062;4.508;2022-11-06T05:22:07;101363.88;;;11.12;81.60
17936;BME280;9093;52.062;4.508;2022-11-06T05:25:06;101348.78;;;11.11;81.76
17936;BME280;9093;52.062;4.508;2022-11-06T05:27:46;101361.22;;;11.12;81.85
17936;BME280;9093;52.062;4.508;2022-11-06T05:30:27;101358.44;;;11.14;81.87
17936;BME280;9093;52.062;4.508;2022-11-06T05:33:07;101363.78;;;11.14;81.86
17936;BME280;9093;52.062;4.508;2022-11-06T05:35:47;101354.13;;;11.11;81.90
17936;BME280;9093;52.062;4.508;2022-11-06T05:38:28;101345.19;;;11.12;81.84
17936;BME280;9093;52.062;4.508;2022-11-06T05:41:08;101344.22;;;11.13;81.82
17936;BME280;9093;52.062;4.508;2022-11-06T05:43:48;101346.88;;;11.13;81.92
17936;BME280;9093;52.062;4.508;2022-11-06T05:46:28;101347.91;;;11.11;81.94
17936;BME280;9093;52.062;4.508;2022-11-06T05:49:09;101343.44;;;11.11;81.90
17936;BME280;9093;52.062;4.508;2022-11-06T05:51:49;101337.16;;;11.12;82.18
17936;BME280;9093;52.062;4.508;2022-11-06T05:54:29;101331.88;;;11.11;82.09
17936;BME280;9093;52.062;4.508;2022-11-06T05:57:09;101338.97;;;11.12;82.13
17936;BME280;9093;52.062;4.508;2022-11-06T05:59:50;101329.16;;;11.12;81.89
17936;BME280;9093;52.062;4.508;2022-11-06T06:02:30;101323.81;;;11.12;81.91
17936;BME280;9093;52.062;4.508;2022-11-06T06:05:10;101336.19;;;11.13;82.18
17936;BME280;9093;52.062;4.508;2022-11-06T06:07:50;101333.53;;;11.13;82.07
17936;BME280;9093;52.062;4.508;2022-11-06T06:10:31;101328.19;;;11.13;82.36
17936;BME280;9093;52.062;4.508;2022-11-06T06:13:11;101320.25;;;11.12;81.91
17936;BME280;9093;52.062;4.508;2022-11-06T06:15:51;101318.59;;;11.09;82.35
17936;BME280;9093;52.062;4.508;2022-11-06T06:18:32;101332.66;;;11.13;82.25
17936;BME280;9093;52.062;4.508;2022-11-06T06:21:12;101315.84;;;11.11;82.05
17936;BME280;9093;52.062;4.508;2022-11-06T06:23:52;101310.44;;;11.12;82.25
17936;BME280;9093;52.062;4.508;2022-11-06T06:26:32;101313.09;;;11.12;82.40
17936;BME280;9093;52.062;4.508;2022-11-06T06:29:12;101318.47;;;11.12;82.48
17936;BME280;9093;52.062;4.508;2022-11-06T06:31:52;101317.41;;;11.15;82.34
17936;BME280;9093;52.062;4.508;2022-11-06T06:34:33;101314.81;;;11.13;82.27
17936;BME280;9093;52.062;4.508;2022-11-06T06:37:13;101325.50;;;11.13;82.20
17936;BME280;9093;52.062;4.508;2022-11-06T06:39:53;101307.66;;;11.14;82.27
17936;BME280;9093;52.062;4.508;2022-11-06T06:42:33;101313.88;;;11.14;82.31
17936;BME280;9093;52.062;4.508;2022-11-06T06:45:14;101289.81;;;11.14;82.13
17936;BME280;9093;52.062;4.508;2022-11-06T06:47:54;101295.16;;;11.14;82.54
17936;BME280;9093;52.062;4.508;2022-11-06T06:50:34;101291.72;;;11.12;82.27
17936;BME280;9093;52.062;4.508;2022-11-06T06:53:15;101285.41;;;11.13;82.23
17936;BME280;9093;52.062;4.508;2022-11-06T06:55:58;101300.50;;;11.14;82.31
17936;BME280;9093;52.062;4.508;2022-11-06T06:58:39;101290.69;;;11.15;82.22
17936;BME280;9093;52.062;4.508;2022-11-06T07:01:20;101287.03;;;11.17;82.24
17936;BME280;9093;52.062;4.508;2022-11-06T07:04:00;101287.72;;;11.21;82.33
17936;BME280;9093;52.062;4.508;2022-11-06T07:06:40;101282.13;;;11.25;82.28
17936;BME280;9093;52.062;4.508;2022-11-06T07:09:21;101278.38;;;11.29;82.28
17936;BME280;9093;52.062;4.508;2022-11-06T07:12:02;101279.97;;;11.34;82.06
17936;BME280;9093;52.062;4.508;2022-11-06T07:14:43;101280.69;;;11.37;82.10
17936;BME280;9093;52.062;4.508;2022-11-06T07:17:23;101276.97;;;11.40;82.24
17936;BME280;9093;52.062;4.508;2022-11-06T07:20:03;101283.13;;;11.42;82.15
17936;BME280;9093;52.062;4.508;2022-11-06T07:22:44;101280.38;;;11.43;81.94
17936;BME280;9093;52.062;4.508;2022-11-06T07:25:24;101281.25;;;11.44;82.18
17936;BME280;9093;52.062;4.508;2022-11-06T07:28:05;101291.94;;;11.44;82.04
17936;BME280;9093;52.062;4.508;2022-11-06T07:30:46;101285.56;;;11.46;81.85
17936;BME280;9093;52.062;4.508;2022-11-06T07:33:26;101286.28;;;11.50;81.82
17936;BME280;9093;52.062;4.508;2022-11-06T07:36:07;101281.63;;;11.53;81.82
17936;BME280;9093;52.062;4.508;2022-11-06T07:38:49;101271.81;;;11.54;81.84
17936;BME280;9093;52.062;4.508;2022-11-06T07:41:29;101274.41;;;11.55;81.98
17936;BME280;9093;52.062;4.508;2022-11-06T07:44:09;101274.34;;;11.57;81.86
17936;BME280;9093;52.062;4.508;2022-11-06T07:46:49;101274.22;;;11.58;81.91
17936;BME280;9093;52.062;4.508;2022-11-06T07:49:29;101269.75;;;11.59;81.71
17936;BME280;9093;52.062;4.508;2022-11-06T07:52:10;101273.22;;;11.61;81.62
17936;BME280;9093;52.062;4.508;2022-11-06T07:54:50;101274.09;;;11.61;81.81
17936;BME280;9093;52.062;4.508;2022-11-06T07:57:33;101282.19;;;11.60;81.70
17936;BME280;9093;52.062;4.508;2022-11-06T08:00:14;101287.53;;;11.60;81.77
17936;BME280;9093;52.062;4.508;2022-11-06T08:02:54;101272.34;;;11.60;81.96
17936;BME280;9093;52.062;4.508;2022-11-06T08:05:35;101286.53;;;11.62;81.85
17936;BME280;9093;52.062;4.508;2022-11-06T08:08:15;101282.88;;;11.63;81.75
17936;BME280;9093;52.062;4.508;2022-11-06T08:10:59;101276.53;;;11.66;81.84
17936;BME280;9093;52.062;4.508;2022-11-06T08:13:40;101278.19;;;11.68;81.83
17936;BME280;9093;52.062;4.508;2022-11-06T08:16:20;101273.72;;;11.69;81.61
17936;BME280;9093;52.062;4.508;2022-11-06T08:19:00;101280.75;;;11.70;81.63
17936;BME280;9093;52.062;4.508;2022-11-06T08:21:40;101281.81;;;11.67;81.65
17936;BME280;9093;52.062;4.508;2022-11-06T08:24:21;101271.19;;;11.66;81.82
17936;BME280;9093;52.062;4.508;2022-11-06T08:27:01;101269.75;;;11.59;81.90
17936;BME280;9093;52.062;4.508;2022-11-06T08:29:42;101262.97;;;11.52;82.14
17936;BME280;9093;52.062;4.508;2022-11-06T08:32:22;101264.91;;;11.50;82.16
17936;BME280;9093;52.062;4.508;2022-11-06T08:35:02;101256.94;;;11.48;82.30
17936;BME280;9093;52.062;4.508;2022-11-06T08:37:43;101241.75;;;11.49;82.50
17936;BME280;9093;52.062;4.508;2022-11-06T08:40:23;101238.16;;;11.50;82.31
17936;BME280;9093;52.062;4.508;2022-11-06T08:43:07;101228.31;;;11.50;82.38
17936;BME280;9093;52.062;4.508;2022-11-06T08:45:48;101229.16;;;11.51;82.38
17936;BME280;9093;52.062;4.508;2022-11-06T08:48:28;101227.47;;;11.50;82.46
17936;BME280;9093;52.062;4.508;2022-11-06T08:51:08;101215.78;;;11.51;82.49
17936;BME280;9093;52.062;4.508;2022-11-06T08:53:48;101221.94;;;11.53;82.58
17936;BME280;9093;52.062;4.508;2022-11-06T08:56:29;101221.78;;;11.56;82.63
17936;BME280;9093;52.062;4.508;2022-11-06T08:59:09;101216.28;;;11.59;82.54
17936;BME280;9093;52.062;4.508;2022-11-06T09:01:50;101207.16;;;11.63;82.53
17936;BME280;9093;52.062;4.508;2022-11-06T09:04:30;101208.53;;;11.70;82.76
17936;BME280;9093;52.062;4.508;2022-11-06T09:07:10;101204.56;;;11.79;82.37
17936;BME280;9093;52.062;4.508;2022-11-06T09:09:50;101209.50;;;11.86;82.29
17936;BME280;9093;52.062;4.508;2022-11-06T09:12:31;101189.50;;;11.93;82.16
17936;BME280;9093;52.062;4.508;2022-11-06T09:15:11;101203.31;;;12.01;82.23
17936;BME280;9093;52.062;4.508;2022-11-06T09:17:51;101204.91;;;12.05;82.25
17936;BME280;9093;52.062;4.508;2022-11-06T09:20:31;101200.16;;;12.11;82.18
17936;BME280;9093;52.062;4.508;2022-11-06T09:23:11;101198.88;;;12.18;82.10
17936;BME280;9093;52.062;4.508;2022-11-06T09:25:52;101204.03;;;12.21;82.07
17936;BME280;9093;52.062;4.508;2022-11-06T09:28:32;101207.69;;;12.20;82.16
17936;BME280;9093;52.062;4.508;2022-11-06T09:31:12;101206.66;;;12.22;82.37
17936;BME280;9093;52.062;4.508;2022-11-06T09:33:53;101201.22;;;12.24;82.32
17936;BME280;9093;52.062;4.508;2022-11-06T09:36:34;101192.84;;;12.30;82.25
17936;BME280;9093;52.062;4.508;2022-11-06T09:39:14;101183.69;;;12.34;82.40
17936;BME280;9093;52.062;4.508;2022-11-06T09:41:56;101184.47;;;12.36;82.54
17936;BME280;9093;52.062;4.508;2022-11-06T09:44:42;101177.97;;;12.40;82.50
17936;BME280;9093;52.062;4.508;2022-11-06T09:47:27;101176.88;;;12.44;82.14
17936;BME280;9093;52.062;4.508;2022-11-06T09:50:16;101174.28;;;12.42;82.40
17936;BME280;9093;52.062;4.508;2022-11-06T09:53:00;101170.66;;;12.43;82.47
17936;BME280;9093;52.062;4.508;2022-11-06T09:55:43;101158.13;;;12.44;82.40
17936;BME280;9093;52.062;4.508;2022-11-06T09:58:25;101154.50;;;12.45;82.44
17936;BME280;9093;52.062;4.508;2022-11-06T10:01:20;101154.50;;;12.45;82.56
17936;BME280;9093;52.062;4.508;2022-11-06T10:04:01;101156.22;;;12.46;82.49
17936;BME280;9093;52.062;4.508;2022-11-06T10:06:42;101161.41;;;12.49;82.45
17936;BME280;9093;52.062;4.508;2022-11-06T10:09:22;101157.94;;;12.47;82.65
17936;BME280;9093;52.062;4.508;2022-11-06T10:12:13;101162.56;;;12.45;82.64
17936;BME280;9093;52.062;4.508;2022-11-06T10:15:17;101154.41;;;12.46;82.60
17936;BME280;9093;52.062;4.508;2022-11-06T10:21:01;101148.81;;;12.51;82.78
17936;BME280;9093;52.062;4.508;2022-11-06T10:23:56;101135.16;;;12.56;82.73
17936;BME280;9093;52.062;4.508;2022-11-06T10:26:38;101135.81;;;12.59;82.48
17936;BME280;9093;52.062;4.508;2022-11-06T10:35:02;101143.69;;;12.62;82.50
17936;BME280;9093;52.062;4.508;2022-11-06T10:37:47;101133.34;;;12.56;82.60
17936;BME280;9093;52.062;4.508;2022-11-06T10:40:29;101125.31;;;12.56;82.65
17936;BME280;9093;52.062;4.508;2022-11-06T10:43:29;101120.88;;;12.55;82.90
17936;BME280;9093;52.062;4.508;2022-11-06T10:48:55;101105.75;;;12.54;83.00
17936;BME280;9093;52.062;4.508;2022-11-06T10:57:34;101096.63;;;12.58;82.75
17936;BME280;9093;52.062;4.508;2022-11-06T11:00:15;101096.88;;;12.54;82.93
17936;BME280;9093;52.062;4.508;2022-11-06T11:02:56;101084.34;;;12.54;83.03
17936;BME280;9093;52.062;4.508;2022-11-06T11:05:39;101089.88;;;12.51;83.09
17936;BME280;9093;52.062;4.508;2022-11-06T11:11:25;101074.19;;;12.45;83.16
17936;BME280;9093;52.062;4.508;2022-11-06T11:16:49;101072.81;;;12.38;83.15
17936;BME280;9093;52.062;4.508;2022-11-06T11:19:33;101083.66;;;12.35;83.39
17936;BME280;9093;52.062;4.508;2022-11-06T11:22:20;101066.94;;;12.31;83.37
17936;BME280;9093;52.062;4.508;2022-11-06T11:25:01;101073.41;;;12.27;83.36
17936;BME280;9093;52.062;4.508;2022-11-06T11:27:43;101071.06;;;12.21;83.41
17936;BME280;9093;52.062;4.508;2022-11-06T11:30:24;101068.59;;;12.18;83.77
17936;BME280;9093;52.062;4.508;2022-11-06T11:33:11;101071.34;;;12.17;83.61
17936;BME280;9093;52.062;4.508;2022-11-06T11:35:52;101066.19;;;12.14;83.71
17936;BME280;9093;52.062;4.508;2022-11-06T11:38:36;101047.59;;;12.11;83.66
17936;BME280;9093;52.062;4.508;2022-11-06T11:44:04;101044.13;;;12.08;83.79
17936;BME280;9093;52.062;4.508;2022-11-06T11:46:46;101035.34;;;12.06;83.77
17936;BME280;9093;52.062;4.508;2022-11-06T11:49:28;101026.38;;;12.07;83.78
17936;BME280;9093;52.062;4.508;2022-11-06T11:52:10;101010.13;;;12.11;83.93
17936;BME280;9093;52.062;4.508;2022-11-06T11:54:52;101008.03;;;12.16;83.90
17936;BME280;9093;52.062;4.508;2022-11-06T11:57:32;101012.19;;;12.21;83.78
17936;BME280;9093;52.062;4.508;2022-11-06T12:00:13;101000.59;;;12.21;83.91
17936;BME280;9093;52.062;4.508;2022-11-06T12:02:56;100994.59;;;12.17;83.76
17936;BME280;9093;52.062;4.508;2022-11-06T12:05:38;100983.00;;;12.17;83.86
17936;BME280;9093;52.062;4.508;2022-11-06T12:08:23;100983.72;;;12.20;83.81
17936;BME280;9093;52.062;4.508;2022-11-06T12:11:05;100979.03;;;12.24;83.71
17936;BME280;9093;52.062;4.508;2022-11-06T12:14:08;100973.38;;;12.28;83.89
17936;BME280;9093;52.062;4.508;2022-11-06T12:16:49;100963.47;;;12.30;83.61
17936;BME280;9093;52.062;4.508;2022-11-06T12:19:31;100958.78;;;12.34;83.57
17936;BME280;9093;52.062;4.508;2022-11-06T12:22:22;100955.16;;;12.35;83.66
17936;BME280;9093;52.062;4.508;2022-11-06T12:27:51;100956.88;;;12.36;83.64
17936;BME280;9093;52.062;4.508;2022-11-06T12:30:32;100948.06;;;12.34;83.76
17936;BME280;9093;52.062;4.508;2022-11-06T12:33:18;100949.13;;;12.31;83.45
17936;BME280;9093;52.062;4.508;2022-11-06T12:36:00;100944.81;;;12.29;83.55
17936;BME280;9093;52.062;4.508;2022-11-06T12:38:50;100946.53;;;12.30;83.71
17936;BME280;9093;52.062;4.508;2022-11-06T12:41:33;100945.00;;;12.26;83.78
17936;BME280;9093;52.062;4.508;2022-11-06T12:44:15;100939.91;;;12.21;83.81
17936;BME280;9093;52.062;4.508;2022-11-06T12:47:13;100945.38;;;12.20;83.97
17936;BME280;9093;52.062;4.508;2022-11-06T12:59:04;100939.16;;;12.03;83.84
17936;BME280;9093;52.062;4.508;2022-11-06T13:04:54;100934.38;;;11.94;83.86
17936;BME280;9093;52.062;4.508;2022-11-06T13:10:26;100931.94;;;11.90;84.19
17936;BME280;9093;52.062;4.508;2022-11-06T13:18:51;100932.81;;;11.90;84.29
17936;BME280;9093;52.062;4.508;2022-11-06T13:21:49;100918.75;;;11.87;84.08
17936;BME280;9093;52.062;4.508;2022-11-06T13:33:35;100910.38;;;11.77;84.15
17936;BME280;9093;52.062;4.508;2022-11-06T13:35:55;100914.16;;;11.73;84.24
17936;BME280;9093;52.062;4.508;2022-11-06T13:38:42;100908.16;;;11.69;84.24
17936;BME280;9093;52.062;4.508;2022-11-06T13:41:25;100902.09;;;11.66;84.17
17936;BME280;9093;52.062;4.508;2022-11-06T13:44:08;100899.69;;;11.61;84.45
17936;BME280;9093;52.062;4.508;2022-11-06T13:46:56;100904.31;;;11.58;84.49
17936;BME280;9093;52.062;4.508;2022-11-06T13:52:27;100899.44;;;11.50;84.40
17936;BME280;9093;52.062;4.508;2022-11-06T13:58:02;100899.09;;;11.41;84.70
17936;BME280;9093;52.062;4.508;2022-11-06T14:00:54;100890.28;;;11.39;84.59
17936;BME280;9093;52.062;4.508;2022-11-06T14:06:30;100890.19;;;11.40;84.80
17936;BME280;9093;52.062;4.508;2022-11-06T14:09:14;100883.22;;;11.38;84.74
17936;BME280;9093;52.062;4.508;2022-11-06T14:11:56;100891.59;;;11.32;84.63
17936;BME280;9093;52.062;4.508;2022-11-06T14:14:37;100861.56;;;11.26;84.56
17936;BME280;9093;52.062;4.508;2022-11-06T14:20:03;100860.28;;;11.18;84.70
17936;BME280;9093;52.062;4.508;2022-11-06T14:22:43;100855.97;;;11.15;84.69
17936;BME280;9093;52.062;4.508;2022-11-06T14:25:43;100847.09;;;11.15;84.67
17936;BME280;9093;52.062;4.508;2022-11-06T14:28:31;100858.81;;;11.12;84.90
17936;BME280;9093;52.062;4.508;2022-11-06T14:31:11;100850.38;;;11.04;84.82
17936;BME280;9093;52.062;4.508;2022-11-06T14:34:31;100843.44;;;11.00;84.78
17936;BME280;9093;52.062;4.508;2022-11-06T14:42:35;100822.94;;;10.85;85.29
17936;BME280;9093;52.062;4.508;2022-11-06T14:45:17;100826.03;;;10.77;85.08
17936;BME280;9093;52.062;4.508;2022-11-06T14:47:58;100816.38;;;10.75;85.33
17936;BME280;9093;52.062;4.508;2022-11-06T14:50:38;100801.22;;;10.75;85.22
17936;BME280;9093;52.062;4.508;2022-11-06T14:53:24;100803.13;;;10.73;85.20
17936;BME280;9093;52.062;4.508;2022-11-06T14:56:08;100796.38;;;10.66;85.16
17936;BME280;9093;52.062;4.508;2022-11-06T14:58:52;100788.47;;;10.65;85.25
17936;BME280;9093;52.062;4.508;2022-11-06T15:01:34;100783.13;;;10.65;85.39
17936;BME280;9093;52.062;4.508;2022-11-06T15:04:18;100768.97;;;10.63;85.50
17936;BME280;9093;52.062;4.508;2022-11-06T15:07:13;100765.63;;;10.59;85.21
17936;BME280;9093;52.062;4.508;2022-11-06T15:10:05;100779.38;;;10.52;85.23
17936;BME280;9093;52.062;4.508;2022-11-06T15:15:48;100767.25;;;10.46;85.24
17936;BME280;9093;52.062;4.508;2022-11-06T15:18:30;100752.09;;;10.46;85.18
17936;BME280;9093;52.062;4.508;2022-11-06T15:21:16;100752.09;;;10.46;85.37
17936;BME280;9093;52.062;4.508;2022-11-06T15:24:03;100742.44;;;10.44;85.20
17936;BME280;9093;52.062;4.508;2022-11-06T15:26:47;100743.63;;;10.38;85.25
17936;BME280;9093;52.062;4.508;2022-11-06T15:29:30;100738.47;;;10.35;85.11
17936;BME280;9093;52.062;4.508;2022-11-06T15:32:12;100739.50;;;10.33;85.40
17936;BME280;9093;52.062;4.508;2022-11-06T15:34:56;100724.53;;;10.30;85.33
17936;BME280;9093;52.062;4.508;2022-11-06T15:37:44;100731.75;;;10.28;85.44
17936;BME280;9093;52.062;4.508;2022-11-06T15:40:31;100737.25;;;10.25;85.21
17936;BME280;9093;52.062;4.508;2022-11-06T15:43:27;100728.56;;;10.22;85.24
17936;BME280;9093;52.062;4.508;2022-11-06T15:49:07;100734.16;;;10.17;85.16
17936;BME280;9093;52.062;4.508;2022-11-06T15:51:56;100732.53;;;10.13;85.34
17936;BME280;9093;52.062;4.508;2022-11-06T15:54:38;100727.38;;;10.10;85.26
17936;BME280;9093;52.062;4.508;2022-11-06T15:57:20;100714.91;;;10.11;85.38
17936;BME280;9093;52.062;4.508;2022-11-06T16:00:08;100722.25;;;10.05;85.37
17936;BME280;9093;52.062;4.508;2022-11-06T16:02:57;100716.31;;;10.00;85.45
17936;BME280;9093;52.062;4.508;2022-11-06T16:05:38;100706.78;;;9.96;85.37
17936;BME280;9093;52.062;4.508;2022-11-06T16:08:18;100703.50;;;9.91;85.44
17936;BME280;9093;52.062;4.508;2022-11-06T16:10:59;100707.16;;;9.89;85.53
17936;BME280;9093;52.062;4.508;2022-11-06T16:13:40;100702.78;;;9.88;85.34
17936;BME280;9093;52.062;4.508;2022-11-06T16:16:55;100702.25;;;9.81;85.43